sensor_id;sensor_type;location;lat;lon;timestamp;P1;durP1;ratioP1;P2;durP2;ratioP2
23636;SDS011;11995;50.842;4.456;2022-12-18T00:01:26;84.67;;;38.58;;
23636;SDS011;11995;50.842;4.456;2022-12-18T00:03:57;87.70;;;37.13;;
23636;SDS011;11995;50.842;4.456;2022-12-18T00:06:25;90.67;;;37.80;;
23636;SDS011;11995;50.842;4.456;2022-12-18T00:08:54;90.38;;;37.08;;
23636;SDS011;11995;50.842;4.456;2022-12-18T00:11:24;89.22;;;36.28;;
23636;SDS011;11995;50.842;4.456;2022-12-18T00:13:53;73.28;;;33.30;;
23636;SDS011;11995;50.842;4.456;2022-12-18T00:16:23;71.82;;;34.25;;
23636;SDS011;11995;50.842;4.456;2022-12-18T00:18:52;77.27;;;34.83;;
23636;SDS011;11995;50.842;4.456;2022-12-18T00:21:21;79.55;;;35.65;;
23636;SDS011;11995;50.842;4.456;2022-12-18T00:23:49;89.43;;;35.07;;
23636;SDS011;11995;50.842;4.456;2022-12-18T00:26:21;78.55;;;34.85;;
23636;SDS011;11995;50.842;4.456;2022-12-18T00:28:51;71.85;;;33.02;;
23636;SDS011;11995;50.842;4.456;2022-12-18T00:31:22;80.00;;;34.80;;
23636;SDS011;11995;50.842;4.456;2022-12-18T00:33:50;82.10;;;35.50;;
23636;SDS011;11995;50.842;4.456;2022-12-18T00:36:22;61.55;;;25.65;;
23636;SDS011;11995;50.842;4.456;2022-12-18T00:38:51;73.50;;;32.55;;
23636;SDS011;11995;50.842;4.456;2022-12-18T00:41:23;78.22;;;34.10;;
23636;SDS011;11995;50.842;4.456;2022-12-18T00:44:11;82.65;;;33.75;;
23636;SDS011;11995;50.842;4.456;2022-12-18T00:46:41;73.25;;;33.20;;
23636;SDS011;11995;50.842;4.456;2022-12-18T00:49:09;72.00;;;32.00;;
23636;SDS011;11995;50.842;4.456;2022-12-18T00:51:37;53.58;;;25.15;;
23636;SDS011;11995;50.842;4.456;2022-12-18T00:54:04;71.60;;;30.97;;
23636;SDS011;11995;50.842;4.456;2022-12-18T00:56:34;67.00;;;29.23;;
23636;SDS011;11995;50.842;4.456;2022-12-18T00:59:03;70.10;;;31.27;;
23636;SDS011;11995;50.842;4.456;2022-12-18T01:01:31;55.20;;;24.70;;
23636;SDS011;11995;50.842;4.456;2022-12-18T01:03:59;52.60;;;24.67;;
23636;SDS011;11995;50.842;4.456;2022-12-18T01:06:28;68.10;;;30.30;;
23636;SDS011;11995;50.842;4.456;2022-12-18T01:08:57;66.72;;;30.30;;
23636;SDS011;11995;50.842;4.456;2022-12-18T01:11:24;55.98;;;24.55;;
23636;SDS011;11995;50.842;4.456;2022-12-18T01:13:53;66.80;;;30.27;;
23636;SDS011;11995;50.842;4.456;2022-12-18T01:16:21;64.45;;;29.30;;
23636;SDS011;11995;50.842;4.456;2022-12-18T01:18:54;63.63;;;28.23;;
23636;SDS011;11995;50.842;4.456;2022-12-18T01:21:19;63.33;;;28.90;;
23636;SDS011;11995;50.842;4.456;2022-12-18T01:23:50;61.68;;;27.67;;
23636;SDS011;11995;50.842;4.456;2022-12-18T01:26:18;61.28;;;28.00;;
23636;SDS011;11995;50.842;4.456;2022-12-18T01:28:46;63.08;;;26.30;;
23636;SDS011;11995;50.842;4.456;2022-12-18T01:31:15;59.65;;;26.75;;
23636;SDS011;11995;50.842;4.456;2022-12-18T01:33:47;55.30;;;25.70;;
23636;SDS011;11995;50.842;4.456;2022-12-18T01:36:15;58.23;;;26.52;;
23636;SDS011;11995;50.842;4.456;2022-12-18T01:38:50;57.80;;;25.90;;
23636;SDS011;11995;50.842;4.456;2022-12-18T01:41:20;57.20;;;26.35;;
23636;SDS011;11995;50.842;4.456;2022-12-18T01:43:54;53.15;;;24.55;;
23636;SDS011;11995;50.842;4.456;2022-12-18T01:46:23;52.33;;;26.12;;
23636;SDS011;11995;50.842;4.456;2022-12-18T01:48:56;51.73;;;24.10;;
23636;SDS011;11995;50.842;4.456;2022-12-18T01:51:25;54.95;;;26.77;;
23636;SDS011;11995;50.842;4.456;2022-12-18T01:53:57;60.73;;;26.17;;
23636;SDS011;11995;50.842;4.456;2022-12-18T01:56:25;58.42;;;26.17;;
23636;SDS011;11995;50.842;4.456;2022-12-18T01:59:01;56.77;;;26.57;;
23636;SDS011;11995;50.842;4.456;2022-12-18T02:01:27;49.67;;;24.90;;
23636;SDS011;11995;50.842;4.456;2022-12-18T02:04:19;53.60;;;25.77;;
23636;SDS011;11995;50.842;4.456;2022-12-18T02:06:51;53.90;;;24.23;;
23636;SDS011;11995;50.842;4.456;2022-12-18T02:09:31;63.33;;;26.17;;
23636;SDS011;11995;50.842;4.456;2022-12-18T02:12:09;58.30;;;26.05;;
23636;SDS011;11995;50.842;4.456;2022-12-18T02:14:43;53.85;;;26.42;;
23636;SDS011;11995;50.842;4.456;2022-12-18T02:17:22;55.45;;;26.87;;
23636;SDS011;11995;50.842;4.456;2022-12-18T02:22:26;60.35;;;25.77;;
23636;SDS011;11995;50.842;4.456;2022-12-18T02:27:40;59.93;;;27.02;;
23636;SDS011;11995;50.842;4.456;2022-12-18T02:30:09;64.87;;;28.05;;
23636;SDS011;11995;50.842;4.456;2022-12-18T02:32:39;57.80;;;27.58;;
23636;SDS011;11995;50.842;4.456;2022-12-18T02:35:10;53.80;;;27.05;;
23636;SDS011;11995;50.842;4.456;2022-12-18T02:37:39;63.08;;;25.68;;
23636;SDS011;11995;50.842;4.456;2022-12-18T02:40:09;53.13;;;25.30;;
23636;SDS011;11995;50.842;4.456;2022-12-18T02:42:38;53.85;;;25.12;;
23636;SDS011;11995;50.842;4.456;2022-12-18T02:45:05;60.05;;;26.95;;
23636;SDS011;11995;50.842;4.456;2022-12-18T02:47:35;63.40;;;26.23;;
23636;SDS011;11995;50.842;4.456;2022-12-18T02:50:10;55.30;;;26.35;;
23636;SDS011;11995;50.842;4.456;2022-12-18T02:53:09;53.58;;;25.30;;
23636;SDS011;11995;50.842;4.456;2022-12-18T02:58:41;53.85;;;25.85;;
23636;SDS011;11995;50.842;4.456;2022-12-18T03:01:13;49.30;;;25.50;;
23636;SDS011;11995;50.842;4.456;2022-12-18T03:03:39;57.73;;;25.90;;
23636;SDS011;11995;50.842;4.456;2022-12-18T03:06:16;56.45;;;26.02;;
23636;SDS011;11995;50.842;4.456;2022-12-18T03:08:44;56.70;;;24.77;;
23636;SDS011;11995;50.842;4.456;2022-12-18T03:11:14;58.85;;;26.27;;
23636;SDS011;11995;50.842;4.456;2022-12-18T03:13:48;52.17;;;25.10;;
23636;SDS011;11995;50.842;4.456;2022-12-18T03:16:29;51.68;;;23.02;;
23636;SDS011;11995;50.842;4.456;2022-12-18T03:18:56;56.68;;;24.67;;
23636;SDS011;11995;50.842;4.456;2022-12-18T03:21:27;43.87;;;22.48;;
23636;SDS011;11995;50.842;4.456;2022-12-18T03:23:56;53.60;;;23.60;;
23636;SDS011;11995;50.842;4.456;2022-12-18T03:26:25;52.25;;;24.70;;
23636;SDS011;11995;50.842;4.456;2022-12-18T03:29:04;55.28;;;23.98;;
23636;SDS011;11995;50.842;4.456;2022-12-18T03:31:29;53.25;;;22.93;;
23636;SDS011;11995;50.842;4.456;2022-12-18T03:34:00;47.93;;;22.80;;
23636;SDS011;11995;50.842;4.456;2022-12-18T03:36:29;54.60;;;23.52;;
23636;SDS011;11995;50.842;4.456;2022-12-18T03:38:57;48.02;;;23.05;;
23636;SDS011;11995;50.842;4.456;2022-12-18T03:47:08;43.05;;;22.62;;
23636;SDS011;11995;50.842;4.456;2022-12-18T03:52:29;45.12;;;20.70;;
23636;SDS011;11995;50.842;4.456;2022-12-18T03:54:58;43.65;;;21.20;;
23636;SDS011;11995;50.842;4.456;2022-12-18T03:57:28;48.98;;;20.88;;
23636;SDS011;11995;50.842;4.456;2022-12-18T03:59:59;46.88;;;21.37;;
23636;SDS011;11995;50.842;4.456;2022-12-18T04:02:34;42.80;;;19.52;;
23636;SDS011;11995;50.842;4.456;2022-12-18T04:05:05;44.05;;;19.95;;
23636;SDS011;11995;50.842;4.456;2022-12-18T04:07:35;43.58;;;19.90;;
23636;SDS011;11995;50.842;4.456;2022-12-18T04:10:05;44.48;;;19.30;;
23636;SDS011;11995;50.842;4.456;2022-12-18T04:12:34;39.70;;;18.23;;
23636;SDS011;11995;50.842;4.456;2022-12-18T04:15:03;39.33;;;18.95;;
23636;SDS011;11995;50.842;4.456;2022-12-18T04:17:31;39.00;;;18.42;;
23636;SDS011;11995;50.842;4.456;2022-12-18T04:19:59;44.60;;;19.17;;
23636;SDS011;11995;50.842;4.456;2022-12-18T04:22:26;43.42;;;20.12;;
23636;SDS011;11995;50.842;4.456;2022-12-18T04:24:54;40.63;;;18.32;;
23636;SDS011;11995;50.842;4.456;2022-12-18T04:29:49;37.90;;;17.20;;
23636;SDS011;11995;50.842;4.456;2022-12-18T04:32:16;40.40;;;17.12;;
23636;SDS011;11995;50.842;4.456;2022-12-18T04:34:44;40.05;;;18.55;;
23636;SDS011;11995;50.842;4.456;2022-12-18T04:37:11;42.73;;;19.23;;
23636;SDS011;11995;50.842;4.456;2022-12-18T04:39:39;33.80;;;14.23;;
23636;SDS011;11995;50.842;4.456;2022-12-18T04:42:06;36.93;;;17.77;;
23636;SDS011;11995;50.842;4.456;2022-12-18T04:44:35;43.45;;;19.10;;
23636;SDS011;11995;50.842;4.456;2022-12-18T04:47:03;45.63;;;20.57;;
23636;SDS011;11995;50.842;4.456;2022-12-18T04:49:30;39.57;;;18.43;;
23636;SDS011;11995;50.842;4.456;2022-12-18T04:51:58;30.45;;;14.13;;
23636;SDS011;11995;50.842;4.456;2022-12-18T04:54:25;30.68;;;15.48;;
23636;SDS011;11995;50.842;4.456;2022-12-18T04:56:54;29.87;;;14.73;;
23636;SDS011;11995;50.842;4.456;2022-12-18T04:59:21;45.90;;;19.35;;
23636;SDS011;11995;50.842;4.456;2022-12-18T05:01:49;38.80;;;17.93;;
23636;SDS011;11995;50.842;4.456;2022-12-18T05:04:18;36.75;;;17.10;;
23636;SDS011;11995;50.842;4.456;2022-12-18T05:06:47;36.85;;;17.45;;
23636;SDS011;11995;50.842;4.456;2022-12-18T05:09:14;42.03;;;19.92;;
23636;SDS011;11995;50.842;4.456;2022-12-18T05:11:43;39.78;;;19.07;;
23636;SDS011;11995;50.842;4.456;2022-12-18T05:14:11;33.13;;;15.55;;
23636;SDS011;11995;50.842;4.456;2022-12-18T05:16:39;43.87;;;19.67;;
23636;SDS011;11995;50.842;4.456;2022-12-18T05:19:07;39.30;;;19.15;;
23636;SDS011;11995;50.842;4.456;2022-12-18T05:21:34;42.13;;;18.53;;
23636;SDS011;11995;50.842;4.456;2022-12-18T05:24:02;29.17;;;14.57;;
23636;SDS011;11995;50.842;4.456;2022-12-18T05:26:31;40.60;;;18.07;;
23636;SDS011;11995;50.842;4.456;2022-12-18T05:28:59;40.40;;;18.25;;
23636;SDS011;11995;50.842;4.456;2022-12-18T05:31:27;34.67;;;14.85;;
23636;SDS011;11995;50.842;4.456;2022-12-18T05:36:22;40.80;;;17.70;;
23636;SDS011;11995;50.842;4.456;2022-12-18T05:38:51;44.67;;;21.25;;
23636;SDS011;11995;50.842;4.456;2022-12-18T05:41:21;39.53;;;18.80;;
23636;SDS011;11995;50.842;4.456;2022-12-18T05:43:48;47.65;;;20.23;;
23636;SDS011;11995;50.842;4.456;2022-12-18T05:46:16;28.83;;;14.80;;
23636;SDS011;11995;50.842;4.456;2022-12-18T05:51:16;35.45;;;17.30;;
23636;SDS011;11995;50.842;4.456;2022-12-18T05:53:42;35.55;;;16.67;;
23636;SDS011;11995;50.842;4.456;2022-12-18T05:56:14;33.38;;;16.62;;
23636;SDS011;11995;50.842;4.456;2022-12-18T05:58:40;37.80;;;18.55;;
23636;SDS011;11995;50.842;4.456;2022-12-18T06:01:09;30.20;;;14.73;;
23636;SDS011;11995;50.842;4.456;2022-12-18T06:03:42;31.60;;;15.95;;
23636;SDS011;11995;50.842;4.456;2022-12-18T06:06:18;29.02;;;17.37;;
23636;SDS011;11995;50.842;4.456;2022-12-18T06:08:50;34.40;;;15.63;;
23636;SDS011;11995;50.842;4.456;2022-12-18T06:11:20;36.23;;;18.20;;
23636;SDS011;11995;50.842;4.456;2022-12-18T06:13:49;32.10;;;16.70;;
23636;SDS011;11995;50.842;4.456;2022-12-18T06:16:19;35.75;;;15.93;;
23636;SDS011;11995;50.842;4.456;2022-12-18T06:18:46;30.05;;;14.80;;
23636;SDS011;11995;50.842;4.456;2022-12-18T06:21:14;28.38;;;14.30;;
23636;SDS011;11995;50.842;4.456;2022-12-18T06:23:41;33.70;;;16.55;;
23636;SDS011;11995;50.842;4.456;2022-12-18T06:26:10;34.83;;;15.67;;
23636;SDS011;11995;50.842;4.456;2022-12-18T06:28:38;36.98;;;16.35;;
23636;SDS011;11995;50.842;4.456;2022-12-18T06:31:06;35.90;;;17.10;;
23636;SDS011;11995;50.842;4.456;2022-12-18T06:33:35;33.75;;;15.75;;
23636;SDS011;11995;50.842;4.456;2022-12-18T06:36:08;32.65;;;16.17;;
23636;SDS011;11995;50.842;4.456;2022-12-18T06:38:33;32.35;;;16.62;;
23636;SDS011;11995;50.842;4.456;2022-12-18T06:41:06;31.57;;;15.53;;
23636;SDS011;11995;50.842;4.456;2022-12-18T06:43:38;34.18;;;15.83;;
23636;SDS011;11995;50.842;4.456;2022-12-18T06:46:05;23.32;;;11.35;;
23636;SDS011;11995;50.842;4.456;2022-12-18T06:48:33;30.52;;;16.07;;
23636;SDS011;11995;50.842;4.456;2022-12-18T06:51:02;35.65;;;14.93;;
23636;SDS011;11995;50.842;4.456;2022-12-18T06:53:31;28.47;;;14.50;;
23636;SDS011;11995;50.842;4.456;2022-12-18T06:56:00;36.60;;;16.20;;
23636;SDS011;11995;50.842;4.456;2022-12-18T06:58:29;28.38;;;13.78;;
23636;SDS011;11995;50.842;4.456;2022-12-18T07:01:03;25.15;;;14.25;;
23636;SDS011;11995;50.842;4.456;2022-12-18T07:03:33;27.35;;;12.82;;
23636;SDS011;11995;50.842;4.456;2022-12-18T07:06:01;30.08;;;14.83;;
23636;SDS011;11995;50.842;4.456;2022-12-18T07:08:29;21.77;;;11.50;;
23636;SDS011;11995;50.842;4.456;2022-12-18T07:10:57;27.58;;;13.03;;
23636;SDS011;11995;50.842;4.456;2022-12-18T07:13:25;25.15;;;13.32;;
23636;SDS011;11995;50.842;4.456;2022-12-18T07:15:53;28.07;;;13.62;;
23636;SDS011;11995;50.842;4.456;2022-12-18T07:18:20;31.00;;;14.07;;
23636;SDS011;11995;50.842;4.456;2022-12-18T07:20:48;29.32;;;14.60;;
23636;SDS011;11995;50.842;4.456;2022-12-18T07:23:15;28.05;;;13.38;;
23636;SDS011;11995;50.842;4.456;2022-12-18T07:25:43;27.90;;;14.63;;
23636;SDS011;11995;50.842;4.456;2022-12-18T07:28:10;29.87;;;14.53;;
23636;SDS011;11995;50.842;4.456;2022-12-18T07:30:38;28.62;;;13.78;;
23636;SDS011;11995;50.842;4.456;2022-12-18T07:33:05;24.47;;;12.53;;
23636;SDS011;11995;50.842;4.456;2022-12-18T07:35:33;28.73;;;14.30;;
23636;SDS011;11995;50.842;4.456;2022-12-18T07:38:01;21.62;;;10.78;;
23636;SDS011;11995;50.842;4.456;2022-12-18T07:40:28;20.80;;;10.70;;
23636;SDS011;11995;50.842;4.456;2022-12-18T07:42:56;22.13;;;12.35;;
23636;SDS011;11995;50.842;4.456;2022-12-18T07:45:23;22.40;;;9.75;;
23636;SDS011;11995;50.842;4.456;2022-12-18T07:47:51;23.62;;;12.63;;
23636;SDS011;11995;50.842;4.456;2022-12-18T07:50:19;20.47;;;9.83;;
23636;SDS011;11995;50.842;4.456;2022-12-18T07:52:46;25.05;;;11.48;;
23636;SDS011;11995;50.842;4.456;2022-12-18T07:55:14;24.47;;;12.80;;
23636;SDS011;11995;50.842;4.456;2022-12-18T07:57:41;16.40;;;9.45;;
23636;SDS011;11995;50.842;4.456;2022-12-18T08:00:09;26.12;;;13.62;;
23636;SDS011;11995;50.842;4.456;2022-12-18T08:02:38;25.43;;;12.95;;
23636;SDS011;11995;50.842;4.456;2022-12-18T08:05:05;25.80;;;12.93;;
23636;SDS011;11995;50.842;4.456;2022-12-18T08:07:36;29.00;;;14.28;;
23636;SDS011;11995;50.842;4.456;2022-12-18T08:10:10;25.23;;;11.80;;
23636;SDS011;11995;50.842;4.456;2022-12-18T08:12:38;31.42;;;14.03;;
23636;SDS011;11995;50.842;4.456;2022-12-18T08:17:38;24.70;;;12.63;;
23636;SDS011;11995;50.842;4.456;2022-12-18T08:20:06;27.05;;;13.45;;
23636;SDS011;11995;50.842;4.456;2022-12-18T08:22:35;22.48;;;12.03;;
23636;SDS011;11995;50.842;4.456;2022-12-18T08:25:09;21.15;;;11.63;;
23636;SDS011;11995;50.842;4.456;2022-12-18T08:27:37;18.10;;;9.50;;
23636;SDS011;11995;50.842;4.456;2022-12-18T08:30:06;16.65;;;8.15;;
23636;SDS011;11995;50.842;4.456;2022-12-18T08:32:35;17.40;;;9.15;;
23636;SDS011;11995;50.842;4.456;2022-12-18T08:35:03;15.60;;;7.65;;
23636;SDS011;11995;50.842;4.456;2022-12-18T08:37:32;17.35;;;9.95;;
23636;SDS011;11995;50.842;4.456;2022-12-18T08:40:00;16.77;;;9.68;;
23636;SDS011;11995;50.842;4.456;2022-12-18T08:42:28;20.70;;;10.23;;
23636;SDS011;11995;50.842;4.456;2022-12-18T08:45:13;19.92;;;9.60;;
23636;SDS011;11995;50.842;4.456;2022-12-18T08:50:12;16.67;;;9.73;;
23636;SDS011;11995;50.842;4.456;2022-12-18T08:52:48;17.40;;;9.03;;
23636;SDS011;11995;50.842;4.456;2022-12-18T08:55:14;22.15;;;18.35;;
23636;SDS011;11995;50.842;4.456;2022-12-18T08:57:42;15.18;;;11.88;;
23636;SDS011;11995;50.842;4.456;2022-12-18T09:00:10;15.95;;;9.25;;
23636;SDS011;11995;50.842;4.456;2022-12-18T09:02:40;17.98;;;9.93;;
23636;SDS011;11995;50.842;4.456;2022-12-18T09:05:07;20.08;;;10.80;;
23636;SDS011;11995;50.842;4.456;2022-12-18T09:07:35;17.98;;;10.82;;
23636;SDS011;11995;50.842;4.456;2022-12-18T09:10:03;19.20;;;10.93;;
23636;SDS011;11995;50.842;4.456;2022-12-18T09:12:31;15.90;;;9.23;;
23636;SDS011;11995;50.842;4.456;2022-12-18T09:14:59;16.90;;;9.43;;
23636;SDS011;11995;50.842;4.456;2022-12-18T09:17:26;20.52;;;9.95;;
23636;SDS011;11995;50.842;4.456;2022-12-18T09:19:54;19.40;;;10.15;;
23636;SDS011;11995;50.842;4.456;2022-12-18T09:22:21;22.15;;;11.57;;
23636;SDS011;11995;50.842;4.456;2022-12-18T09:24:49;21.33;;;10.82;;
23636;SDS011;11995;50.842;4.456;2022-12-18T09:27:16;21.80;;;11.65;;
23636;SDS011;11995;50.842;4.456;2022-12-18T09:29:44;21.75;;;11.03;;
23636;SDS011;11995;50.842;4.456;2022-12-18T09:32:11;22.90;;;10.80;;
23636;SDS011;11995;50.842;4.456;2022-12-18T09:34:39;19.67;;;10.82;;
23636;SDS011;11995;50.842;4.456;2022-12-18T09:37:06;20.85;;;11.03;;
23636;SDS011;11995;50.842;4.456;2022-12-18T09:39:34;22.45;;;10.70;;
23636;SDS011;11995;50.842;4.456;2022-12-18T09:42:02;17.75;;;10.60;;
23636;SDS011;11995;50.842;4.456;2022-12-18T09:44:34;28.52;;;8.98;;
23636;SDS011;11995;50.842;4.456;2022-12-18T09:49:43;26.87;;;11.35;;
23636;SDS011;11995;50.842;4.456;2022-12-18T09:52:17;24.55;;;12.35;;
23636;SDS011;11995;50.842;4.456;2022-12-18T09:55:05;28.35;;;12.88;;
23636;SDS011;11995;50.842;4.456;2022-12-18T09:57:39;23.45;;;11.80;;
23636;SDS011;11995;50.842;4.456;2022-12-18T10:00:15;24.27;;;12.50;;
23636;SDS011;11995;50.842;4.456;2022-12-18T10:02:42;20.15;;;12.65;;
23636;SDS011;11995;50.842;4.456;2022-12-18T10:05:15;23.67;;;12.78;;
23636;SDS011;11995;50.842;4.456;2022-12-18T10:08:18;24.02;;;13.38;;
23636;SDS011;11995;50.842;4.456;2022-12-18T10:10:38;22.67;;;11.93;;
23636;SDS011;11995;50.842;4.456;2022-12-18T10:21:07;26.97;;;12.85;;
23636;SDS011;11995;50.842;4.456;2022-12-18T10:23:39;22.37;;;12.10;;
23636;SDS011;11995;50.842;4.456;2022-12-18T10:26:11;21.12;;;12.37;;
23636;SDS011;11995;50.842;4.456;2022-12-18T10:28:39;22.77;;;12.63;;
23636;SDS011;11995;50.842;4.456;2022-12-18T10:33:44;22.35;;;12.85;;
23636;SDS011;11995;50.842;4.456;2022-12-18T10:36:11;22.70;;;11.50;;
23636;SDS011;11995;50.842;4.456;2022-12-18T10:38:39;22.62;;;12.70;;
23636;SDS011;11995;50.842;4.456;2022-12-18T10:43:51;28.23;;;13.05;;
23636;SDS011;11995;50.842;4.456;2022-12-18T10:46:23;23.15;;;12.28;;
23636;SDS011;11995;50.842;4.456;2022-12-18T10:51:24;28.70;;;13.60;;
23636;SDS011;11995;50.842;4.456;2022-12-18T10:54:03;26.57;;;13.32;;
23636;SDS011;11995;50.842;4.456;2022-12-18T10:56:27;26.23;;;13.70;;
23636;SDS011;11995;50.842;4.456;2022-12-18T10:59:02;26.10;;;13.50;;
23636;SDS011;11995;50.842;4.456;2022-12-18T11:01:50;26.80;;;14.65;;
23636;SDS011;11995;50.842;4.456;2022-12-18T11:04:29;26.62;;;13.90;;
23636;SDS011;11995;50.842;4.456;2022-12-18T11:07:04;28.85;;;13.80;;
23636;SDS011;11995;50.842;4.456;2022-12-18T11:09:34;25.77;;;14.40;;
23636;SDS011;11995;50.842;4.456;2022-12-18T11:12:05;28.05;;;14.28;;
23636;SDS011;11995;50.842;4.456;2022-12-18T11:17:31;27.10;;;14.35;;
23636;SDS011;11995;50.842;4.456;2022-12-18T11:19:58;25.40;;;13.90;;
23636;SDS011;11995;50.842;4.456;2022-12-18T11:22:28;27.32;;;14.65;;
23636;SDS011;11995;50.842;4.456;2022-12-18T11:25:01;27.02;;;13.48;;
23636;SDS011;11995;50.842;4.456;2022-12-18T11:27:31;26.12;;;14.63;;
23636;SDS011;11995;50.842;4.456;2022-12-18T11:32:50;27.52;;;14.80;;
23636;SDS011;11995;50.842;4.456;2022-12-18T11:43:42;27.50;;;14.80;;
23636;SDS011;11995;50.842;4.456;2022-12-18T11:46:19;30.30;;;15.15;;
23636;SDS011;11995;50.842;4.456;2022-12-18T11:49:14;27.48;;;16.02;;
23636;SDS011;11995;50.842;4.456;2022-12-18T11:54:34;30.52;;;18.10;;
23636;SDS011;11995;50.842;4.456;2022-12-18T11:57:07;26.77;;;14.90;;
23636;SDS011;11995;50.842;4.456;2022-12-18T12:08:07;31.20;;;16.12;;
23636;SDS011;11995;50.842;4.456;2022-12-18T12:10:34;32.08;;;16.87;;
23636;SDS011;11995;50.842;4.456;2022-12-18T12:13:12;30.12;;;16.32;;
23636;SDS011;11995;50.842;4.456;2022-12-18T12:22:04;30.80;;;16.90;;
23636;SDS011;11995;50.842;4.456;2022-12-18T12:29:55;30.10;;;17.17;;
23636;SDS011;11995;50.842;4.456;2022-12-18T12:32:42;33.58;;;17.32;;
23636;SDS011;11995;50.842;4.456;2022-12-18T12:35:43;33.95;;;19.42;;
23636;SDS011;11995;50.842;4.456;2022-12-18T12:41:01;31.97;;;17.80;;
23636;SDS011;11995;50.842;4.456;2022-12-18T12:43:35;37.05;;;19.05;;
23636;SDS011;11995;50.842;4.456;2022-12-18T12:46:09;33.20;;;18.45;;
23636;SDS011;11995;50.842;4.456;2022-12-18T12:48:36;30.08;;;16.27;;
23636;SDS011;11995;50.842;4.456;2022-12-18T12:51:17;32.48;;;16.95;;
23636;SDS011;11995;50.842;4.456;2022-12-18T12:53:54;38.58;;;18.32;;
23636;SDS011;11995;50.842;4.456;2022-12-18T12:56:24;31.77;;;17.50;;
23636;SDS011;11995;50.842;4.456;2022-12-18T12:59:11;28.25;;;16.35;;
23636;SDS011;11995;50.842;4.456;2022-12-18T13:07:38;31.37;;;16.42;;
23636;SDS011;11995;50.842;4.456;2022-12-18T13:15:39;33.73;;;17.02;;
23636;SDS011;11995;50.842;4.456;2022-12-18T13:25:53;37.00;;;16.87;;
23636;SDS011;11995;50.842;4.456;2022-12-18T13:36:46;36.95;;;17.17;;
23636;SDS011;11995;50.842;4.456;2022-12-18T13:41:51;36.63;;;18.55;;
23636;SDS011;11995;50.842;4.456;2022-12-18T13:44:54;36.35;;;17.62;;
23636;SDS011;11995;50.842;4.456;2022-12-18T13:46:59;34.10;;;17.77;;
23636;SDS011;11995;50.842;4.456;2022-12-18T13:52:18;45.08;;;21.52;;
23636;SDS011;11995;50.842;4.456;2022-12-18T13:54:51;46.40;;;21.27;;
23636;SDS011;11995;50.842;4.456;2022-12-18T13:57:34;39.35;;;20.20;;
23636;SDS011;11995;50.842;4.456;2022-12-18T14:03:00;40.52;;;20.02;;
23636;SDS011;11995;50.842;4.456;2022-12-18T14:05:28;39.50;;;21.15;;
23636;SDS011;11995;50.842;4.456;2022-12-18T14:08:01;37.65;;;19.48;;
23636;SDS011;11995;50.842;4.456;2022-12-18T14:10:31;38.63;;;19.73;;
23636;SDS011;11995;50.842;4.456;2022-12-18T14:13:03;37.48;;;19.02;;
23636;SDS011;11995;50.842;4.456;2022-12-18T14:15:33;40.10;;;19.87;;
23636;SDS011;11995;50.842;4.456;2022-12-18T14:18:15;45.15;;;20.97;;
23636;SDS011;11995;50.842;4.456;2022-12-18T14:20:47;43.95;;;21.97;;
23636;SDS011;11995;50.842;4.456;2022-12-18T14:26:03;46.25;;;22.07;;
23636;SDS011;11995;50.842;4.456;2022-12-18T14:28:31;38.83;;;20.52;;
23636;SDS011;11995;50.842;4.456;2022-12-18T14:30:59;39.88;;;20.57;;
23636;SDS011;11995;50.842;4.456;2022-12-18T14:33:27;42.55;;;21.60;;
23636;SDS011;11995;50.842;4.456;2022-12-18T14:35:56;44.33;;;22.30;;
23636;SDS011;11995;50.842;4.456;2022-12-18T14:38:32;45.05;;;21.97;;
23636;SDS011;11995;50.842;4.456;2022-12-18T14:41:01;42.45;;;22.50;;
23636;SDS011;11995;50.842;4.456;2022-12-18T14:43:34;40.23;;;21.33;;
23636;SDS011;11995;50.842;4.456;2022-12-18T14:46:04;44.25;;;22.07;;
23636;SDS011;11995;50.842;4.456;2022-12-18T14:48:38;44.33;;;21.45;;
23636;SDS011;11995;50.842;4.456;2022-12-18T14:53:51;44.10;;;22.05;;
23636;SDS011;11995;50.842;4.456;2022-12-18T14:56:23;43.95;;;21.85;;
23636;SDS011;11995;50.842;4.456;2022-12-18T14:58:59;42.20;;;21.85;;
23636;SDS011;11995;50.842;4.456;2022-12-18T15:01:27;52.78;;;25.77;;
23636;SDS011;11995;50.842;4.456;2022-12-18T15:03:57;44.27;;;22.35;;
23636;SDS011;11995;50.842;4.456;2022-12-18T15:06:28;44.95;;;21.97;;
23636;SDS011;11995;50.842;4.456;2022-12-18T15:08:58;46.25;;;24.10;;
23636;SDS011;11995;50.842;4.456;2022-12-18T15:11:33;44.20;;;21.00;;
23636;SDS011;11995;50.842;4.456;2022-12-18T15:13:57;50.15;;;22.98;;
23636;SDS011;11995;50.842;4.456;2022-12-18T15:16:26;43.33;;;21.73;;
23636;SDS011;11995;50.842;4.456;2022-12-18T15:18:54;45.78;;;22.15;;
23636;SDS011;11995;50.842;4.456;2022-12-18T15:21:21;52.08;;;23.42;;
23636;SDS011;11995;50.842;4.456;2022-12-18T15:23:50;47.90;;;23.25;;
23636;SDS011;11995;50.842;4.456;2022-12-18T15:28:50;46.50;;;20.97;;
23636;SDS011;11995;50.842;4.456;2022-12-18T15:31:22;45.48;;;22.15;;
23636;SDS011;11995;50.842;4.456;2022-12-18T15:36:24;66.57;;;28.65;;
23636;SDS011;11995;50.842;4.456;2022-12-18T15:38:52;41.97;;;21.73;;
23636;SDS011;11995;50.842;4.456;2022-12-18T15:41:21;46.88;;;22.40;;
23636;SDS011;11995;50.842;4.456;2022-12-18T15:43:51;46.85;;;22.07;;
23636;SDS011;11995;50.842;4.456;2022-12-18T15:46:23;42.93;;;22.32;;
23636;SDS011;11995;50.842;4.456;2022-12-18T15:48:52;41.85;;;22.00;;
23636;SDS011;11995;50.842;4.456;2022-12-18T15:51:22;44.20;;;21.68;;
23636;SDS011;11995;50.842;4.456;2022-12-18T15:53:53;48.80;;;22.73;;
23636;SDS011;11995;50.842;4.456;2022-12-18T15:56:25;47.48;;;22.45;;
23636;SDS011;11995;50.842;4.456;2022-12-18T15:59:11;49.88;;;23.32;;
23636;SDS011;11995;50.842;4.456;2022-12-18T16:01:44;47.35;;;23.15;;
23636;SDS011;11995;50.842;4.456;2022-12-18T16:04:14;40.50;;;21.00;;
23636;SDS011;11995;50.842;4.456;2022-12-18T16:06:43;45.75;;;23.00;;
23636;SDS011;11995;50.842;4.456;2022-12-18T16:09:10;51.33;;;24.60;;
23636;SDS011;11995;50.842;4.456;2022-12-18T16:11:39;45.95;;;22.15;;
23636;SDS011;11995;50.842;4.456;2022-12-18T16:14:16;45.10;;;21.90;;
23636;SDS011;11995;50.842;4.456;2022-12-18T16:16:49;43.58;;;22.62;;
23636;SDS011;11995;50.842;4.456;2022-12-18T16:19:18;49.10;;;22.75;;
23636;SDS011;11995;50.842;4.456;2022-12-18T16:21:48;47.85;;;22.75;;
23636;SDS011;11995;50.842;4.456;2022-12-18T16:24:20;48.80;;;23.73;;
23636;SDS011;11995;50.842;4.456;2022-12-18T16:26:50;48.25;;;22.93;;
23636;SDS011;11995;50.842;4.456;2022-12-18T16:34:21;44.95;;;23.02;;
23636;SDS011;11995;50.842;4.456;2022-12-18T16:36:52;45.03;;;22.13;;
23636;SDS011;11995;50.842;4.456;2022-12-18T16:39:21;47.70;;;23.10;;
23636;SDS011;11995;50.842;4.456;2022-12-18T16:41:49;40.83;;;19.73;;
23636;SDS011;11995;50.842;4.456;2022-12-18T16:44:18;48.05;;;23.95;;
23636;SDS011;11995;50.842;4.456;2022-12-18T16:46:46;44.85;;;21.62;;
23636;SDS011;11995;50.842;4.456;2022-12-18T16:49:17;43.98;;;20.82;;
23636;SDS011;11995;50.842;4.456;2022-12-18T16:51:46;44.48;;;21.10;;
23636;SDS011;11995;50.842;4.456;2022-12-18T16:54:13;43.50;;;21.00;;
23636;SDS011;11995;50.842;4.456;2022-12-18T16:56:41;46.10;;;21.52;;
23636;SDS011;11995;50.842;4.456;2022-12-18T16:59:09;49.93;;;21.15;;